createdAt,value
2019-01-16T00:02:14.611Z,100854.73
2019-01-16T00:05:23.709Z,100856.23
2019-01-16T00:08:32.552Z,100867.94
2019-01-16T00:11:37.759Z,100866.51
2019-01-16T00:14:45.967Z,100867.05
2019-01-16T00:17:46.721Z,100865.68
2019-01-16T00:20:52.383Z,100877.66
2019-01-16T00:24:01.763Z,100882.78
2019-01-16T00:27:29.041Z,100880.59
2019-01-16T00:30:37.590Z,100883.61
2019-01-16T00:33:54.454Z,100888.58
2019-01-16T00:37:12.894Z,100890.42
2019-01-16T00:40:31.636Z,100896.30
2019-01-16T00:43:48.028Z,100894.90
2019-01-16T00:47:09.475Z,100895.64
2019-01-16T00:50:17.283Z,100906.66
2019-01-16T00:53:17.367Z,100912.48
2019-01-16T00:56:23.070Z,100919.63
2019-01-16T00:59:31.122Z,100916.17
2019-01-16T01:02:33.810Z,100922.14
2019-01-16T01:05:46.362Z,100929.23
2019-01-16T01:08:55.468Z,100929.10
2019-01-16T01:12:20.226Z,100922.70
2019-01-16T01:15:29.518Z,100927.03
2019-01-16T01:18:45.199Z,100927.83
2019-01-16T01:21:57.386Z,100930.68
2019-01-16T01:25:19.144Z,100932.44
2019-01-16T01:28:18.423Z,100926.16
2019-01-16T01:31:32.507Z,100929.45
2019-01-16T01:34:40.995Z,100917.98
2019-01-16T01:37:53.131Z,100936.45
2019-01-16T01:41:01.416Z,100932.25
2019-01-16T01:44:09.386Z,100933.88
2019-01-16T01:47:11.676Z,100933.87
2019-01-16T01:50:24.404Z,100943.17
2019-01-16T01:53:33.642Z,100941.50
2019-01-16T01:56:41.679Z,100922.30
2019-01-16T02:00:00.247Z,100913.92
2019-01-16T02:03:15.207Z,100920.32
2019-01-16T02:06:27.261Z,100909.41
2019-01-16T02:09:35.863Z,100899.75
2019-01-16T02:12:43.904Z,100908.92
2019-01-16T02:15:52.441Z,100908.39
2019-01-16T02:18:58.745Z,100911.20
2019-01-16T02:22:06.910Z,100897.02
2019-01-16T02:25:19.757Z,100902.73
2019-01-16T02:28:37.857Z,100909.39
2019-01-16T02:31:50.121Z,100914.57
2019-01-16T02:35:18.572Z,100917.11
2019-01-16T02:38:18.765Z,100919.75
2019-01-16T02:41:36.482Z,100913.30
2019-01-16T02:44:54.449Z,100916.70
2019-01-16T02:48:22.758Z,100917.48
2019-01-16T02:51:31.024Z,100929.22
2019-01-16T02:54:55.513Z,100923.57
2019-01-16T02:57:53.844Z,100915.05
2019-01-16T03:01:01.443Z,100913.98
2019-01-16T03:04:20.087Z,100906.56
2019-01-16T03:07:32.616Z,100894.47
2019-01-16T03:10:50.312Z,100890.95
2019-01-16T03:13:57.318Z,100889.09
2019-01-16T03:17:12.803Z,100894.42
2019-01-16T03:20:29.054Z,100897.63
2019-01-16T03:23:42.585Z,100901.05
2019-01-16T03:26:54.965Z,100895.92
2019-01-16T03:30:13.069Z,100898.16
2019-01-16T03:33:21.923Z,100896.98
2019-01-16T03:36:31.616Z,100910.64
2019-01-16T03:39:47.100Z,100920.74
2019-01-16T03:42:55.277Z,100923.82
2019-01-16T03:46:13.414Z,100925.48
2019-01-16T03:49:33.466Z,100929.44
2019-01-16T03:52:43.435Z,100926.84
2019-01-16T03:56:05.735Z,100932.99
2019-01-16T03:59:14.220Z,100931.53
2019-01-16T04:02:22.504Z,100931.09
2019-01-16T04:05:24.385Z,100940.10
2019-01-16T04:08:46.105Z,100948.11
2019-01-16T04:11:57.992Z,100944.59
2019-01-16T04:15:05.838Z,100943.23
2019-01-16T04:18:14.029Z,100949.33
2019-01-16T04:21:32.458Z,100952.41
2019-01-16T04:24:48.167Z,100962.16
2019-01-16T04:28:09.594Z,100969.72
2019-01-16T04:31:25.198Z,100972.55
2019-01-16T04:34:33.455Z,100980.75
2019-01-16T04:37:49.992Z,100971.83
2019-01-16T04:40:57.191Z,100981.92
2019-01-16T04:44:16.259Z,100982.70
2019-01-16T04:47:24.435Z,100983.44
2019-01-16T04:50:37.332Z,100994.75
2019-01-16T04:53:46.363Z,100998.47
2019-01-16T04:57:05.182Z,100997.09
2019-01-16T05:00:17.610Z,100997.05
2019-01-16T05:03:26.055Z,100995.67
2019-01-16T05:06:44.589Z,101006.08
2019-01-16T05:10:05.942Z,101005.88
2019-01-16T05:13:33.442Z,101017.20
2019-01-16T05:16:42.610Z,101014.61
2019-01-16T05:19:45.734Z,101025.16
2019-01-16T05:22:49.044Z,101022.42
2019-01-16T05:26:07.876Z,101029.02
2019-01-16T05:29:20.937Z,101023.20
2019-01-16T05:32:24.163Z,101027.78
2019-01-16T05:35:42.954Z,101022.77
2019-01-16T05:38:50.918Z,101019.39
2019-01-16T05:41:59.385Z,101016.37
2019-01-16T05:45:09.778Z,101012.27
2019-01-16T05:48:11.482Z,101025.00
2019-01-16T05:51:29.608Z,101022.79
2019-01-16T05:54:39.039Z,101024.01
2019-01-16T05:57:50.739Z,101019.13
2019-01-16T06:01:12.448Z,101022.00
2019-01-16T06:04:21.651Z,101016.18
2019-01-16T06:07:49.151Z,101007.13
2019-01-16T06:11:07.561Z,101027.58
2019-01-16T06:14:11.968Z,101035.41
2019-01-16T06:17:15.699Z,101036.16
2019-01-16T06:20:36.294Z,101033.73
2019-01-16T06:23:45.730Z,101037.76
2019-01-16T06:26:54.364Z,101044.26
2019-01-16T06:30:06.635Z,101038.13
2019-01-16T06:33:16.082Z,101034.94
2019-01-16T06:36:22.078Z,101031.83
2019-01-16T06:39:43.792Z,101031.57
2019-01-16T06:42:58.534Z,101047.33
2019-01-16T06:46:11.436Z,101043.52
2019-01-16T06:49:23.682Z,101055.67
2019-01-16T06:52:31.855Z,101050.67
2019-01-16T06:55:51.231Z,101044.17
2019-01-16T06:58:59.514Z,101039.02
2019-01-16T07:02:06.154Z,101020.39
2019-01-16T07:05:10.818Z,101040.76
2019-01-16T07:08:26.012Z,101035.27
2019-01-16T07:11:27.171Z,101035.66
2019-01-16T07:14:42.357Z,101027.17
2019-01-16T07:17:57.757Z,101027.64
2019-01-16T07:21:05.766Z,101030.95
2019-01-16T07:24:24.185Z,101023.22
2019-01-16T07:27:39.843Z,101026.75
2019-01-16T07:31:01.792Z,101026.84
2019-01-16T07:34:13.086Z,101025.55
2019-01-16T07:37:25.708Z,101025.68
2019-01-16T07:40:34.876Z,101029.23
2019-01-16T07:43:43.022Z,101029.53
2019-01-16T07:46:55.615Z,101019.29
2019-01-16T07:50:17.605Z,101009.88
2019-01-16T07:53:33.124Z,101018.27
2019-01-16T07:56:41.472Z,101009.45
2019-01-16T07:59:57.015Z,101006.76
2019-01-16T08:03:06.259Z,101004.74
2019-01-16T08:06:13.860Z,101016.70
2019-01-16T08:09:24.245Z,101012.39
2019-01-16T08:12:39.664Z,101015.25
2019-01-16T08:15:45.007Z,101007.80
2019-01-16T08:18:44.046Z,101020.40
2019-01-16T08:21:52.424Z,101024.45
2019-01-16T08:25:05.339Z,101013.84
2019-01-16T08:28:19.455Z,101017.20
2019-01-16T08:31:47.233Z,101005.12
2019-01-16T08:34:57.818Z,101012.48
2019-01-16T08:38:05.523Z,100995.19
2019-01-16T08:41:14.630Z,100995.19
2019-01-16T08:44:16.340Z,100997.06
2019-01-16T08:47:41.063Z,101000.05
2019-01-16T08:51:05.190Z,100987.41
2019-01-16T08:54:13.470Z,100994.02
2019-01-16T08:57:21.619Z,100984.68
2019-01-16T09:00:39.005Z,100992.19
2019-01-16T09:03:48.228Z,101010.41
2019-01-16T09:06:56.826Z,101005.72
2019-01-16T09:10:09.118Z,100994.62
2019-01-16T09:13:25.124Z,101003.31
2019-01-16T09:16:27.421Z,101002.84
2019-01-16T09:19:36.912Z,100982.84
2019-01-16T09:22:52.182Z,101010.38
2019-01-16T09:25:59.716Z,101022.43
2019-01-16T09:29:24.832Z,101012.01
2019-01-16T09:32:36.950Z,101010.09
2019-01-16T09:36:04.567Z,100996.66
2019-01-16T09:39:12.981Z,100990.83
2019-01-16T09:42:26.185Z,100988.25
2019-01-16T09:45:42.811Z,100975.95
2019-01-16T09:48:52.523Z,100980.52
2019-01-16T09:52:11.364Z,100982.99
2019-01-16T09:55:34.214Z,100969.84
2019-01-16T09:58:45.342Z,100964.42
2019-01-16T10:02:04.569Z,100970.33
2019-01-16T10:05:14.889Z,100955.90
2019-01-16T10:08:22.725Z,100953.64
2019-01-16T10:11:44.845Z,100954.26
2019-01-16T10:14:55.092Z,100955.39
2019-01-16T10:18:01.392Z,100956.42
2019-01-16T10:21:13.924Z,100957.42
2019-01-16T10:24:23.099Z,100958.55
2019-01-16T10:27:32.644Z,100953.15
2019-01-16T10:30:52.122Z,100952.22
2019-01-16T10:34:07.781Z,100944.55
2019-01-16T10:37:17.133Z,100944.70
2019-01-16T10:40:26.320Z,100940.73
2019-01-16T10:43:48.339Z,100929.11
2019-01-16T10:46:57.995Z,100927.88
2019-01-16T10:50:07.357Z,100921.27
2019-01-16T10:53:15.621Z,100907.87
2019-01-16T10:56:37.736Z,100898.64
2019-01-16T10:59:41.703Z,100897.13
2019-01-16T11:02:57.100Z,100899.14
2019-01-16T11:06:09.354Z,100896.54
2019-01-16T11:09:31.368Z,100873.63
2019-01-16T11:12:39.089Z,100867.29
2019-01-16T11:15:47.027Z,100866.84
2019-01-16T11:19:14.568Z,100859.50
2019-01-16T11:22:19.151Z,100848.70
2019-01-16T11:25:30.812Z,100845.94
2019-01-16T11:28:46.746Z,100839.59
2019-01-16T11:32:04.505Z,100843.20
2019-01-16T11:35:26.464Z,100840.45
2019-01-16T11:38:35.872Z,100833.84
2019-01-16T11:42:03.262Z,100813.63
2019-01-16T11:45:30.585Z,100839.20
2019-01-16T11:48:45.911Z,100836.82
2019-01-16T11:51:58.087Z,100819.97
2019-01-16T11:55:07.491Z,100817.77
2019-01-16T11:58:21.344Z,100815.41
2019-01-16T12:01:24.812Z,100810.37
2019-01-16T12:04:28.309Z,100812.94
2019-01-16T12:07:40.713Z,100815.61
2019-01-16T12:10:59.387Z,100815.98
2019-01-16T12:14:07.293Z,100810.45
2019-01-16T12:17:32.943Z,100807.03
2019-01-16T12:20:43.783Z,100801.42
2019-01-16T12:23:59.756Z,100793.43
2019-01-16T12:27:07.856Z,100786.09
2019-01-16T12:30:35.652Z,100780.56
2019-01-16T12:33:43.876Z,100766.09
2019-01-16T12:36:51.761Z,100769.13
2019-01-16T12:39:58.478Z,100781.23
2019-01-16T12:43:05.726Z,100773.69
2019-01-16T12:46:07.539Z,100781.99
2019-01-16T12:49:16.277Z,100788.83
2019-01-16T12:52:31.439Z,100792.56
2019-01-16T12:55:32.973Z,100802.83
2019-01-16T12:58:45.347Z,100788.36
2019-01-16T13:02:00.622Z,100788.73
2019-01-16T13:05:09.165Z,100788.00
2019-01-16T13:08:27.485Z,100776.26
2019-01-16T13:11:35.811Z,100789.90
2019-01-16T13:14:48.262Z,100795.03
2019-01-16T13:18:15.907Z,100792.83
2019-01-16T13:21:19.204Z,100784.77
2019-01-16T13:24:27.720Z,100789.80
2019-01-16T13:27:37.280Z,100783.42
2019-01-16T13:30:55.026Z,100780.92
2019-01-16T13:34:07.213Z,100793.43
2019-01-16T13:37:22.528Z,100778.46
2019-01-16T13:40:40.963Z,100800.47
2019-01-16T13:43:48.459Z,100785.33
2019-01-16T13:46:55.123Z,100787.03
2019-01-16T13:50:00.808Z,100785.31
2019-01-16T13:53:22.716Z,100798.09
2019-01-16T13:56:30.448Z,100792.19
2019-01-16T13:59:58.123Z,100802.65
2019-01-16T14:03:23.508Z,100795.52
2019-01-16T14:06:44.848Z,100806.17
2019-01-16T14:09:53.014Z,100816.64
2019-01-16T14:13:11.507Z,100798.64
2019-01-16T14:16:24.496Z,100795.31
2019-01-16T14:19:39.877Z,100794.55
2019-01-16T14:22:44.502Z,100797.95
2019-01-16T14:26:05.913Z,100793.62
2019-01-16T14:29:13.692Z,100789.98
2019-01-16T14:32:21.729Z,100777.44
2019-01-16T14:35:36.783Z,100774.75
2019-01-16T14:38:55.290Z,100763.32
2019-01-16T14:42:03.593Z,100760.84
2019-01-16T14:45:03.747Z,100756.85
2019-01-16T14:48:25.299Z,100756.98
2019-01-16T14:51:31.782Z,100771.31
2019-01-16T14:54:41.206Z,100780.98
2019-01-16T14:57:52.407Z,100807.53
2019-01-16T15:01:01.243Z,100817.26
2019-01-16T15:04:09.294Z,100827.08
2019-01-16T15:07:18.486Z,100824.38
2019-01-16T15:10:24.663Z,100805.39
2019-01-16T15:13:32.454Z,100804.62
2019-01-16T15:16:44.367Z,100807.44
2019-01-16T15:20:08.951Z,100811.47
2019-01-16T15:23:27.086Z,100819.46
2019-01-16T15:26:39.496Z,100820.92
2019-01-16T15:29:51.755Z,100835.68
2019-01-16T15:33:11.996Z,100830.45
2019-01-16T15:36:36.616Z,100829.41
2019-01-16T15:39:49.199Z,100827.42
2019-01-16T15:43:07.289Z,100824.56
2019-01-16T15:46:14.937Z,100813.02
2019-01-16T15:49:25.877Z,100820.91
2019-01-16T15:52:47.722Z,100826.96
2019-01-16T15:55:59.686Z,100821.73
2019-01-16T15:59:23.739Z,100819.07
2019-01-16T16:02:32.858Z,100831.64
2019-01-16T16:05:50.119Z,100835.64
2019-01-16T16:09:00.029Z,100840.96
2019-01-16T16:12:07.551Z,100842.75
2019-01-16T16:15:22.827Z,100839.67
2019-01-16T16:18:30.904Z,100831.33
2019-01-16T16:21:40.036Z,100837.61
2019-01-16T16:25:01.101Z,100833.52
2019-01-16T16:28:09.206Z,100835.59
2019-01-16T16:31:18.258Z,100838.80
2019-01-16T16:34:33.578Z,100845.52
2019-01-16T16:37:45.861Z,100852.39
2019-01-16T16:41:10.649Z,100855.98
2019-01-16T16:44:18.950Z,100862.80
2019-01-16T16:47:25.643Z,100867.81
2019-01-16T16:50:25.831Z,100865.75
2019-01-16T16:53:34.299Z,100873.50
2019-01-16T16:56:47.149Z,100869.22
2019-01-16T17:00:02.727Z,100873.99
2019-01-16T17:03:29.087Z,100886.45
2019-01-16T17:06:47.680Z,100890.65
2019-01-16T17:10:00.785Z,100891.78
2019-01-16T17:13:28.445Z,100884.60
2019-01-16T17:16:43.400Z,100889.78
2019-01-16T17:20:05.085Z,100888.91
2019-01-16T17:23:14.680Z,100890.19
2019-01-16T17:26:22.763Z,100895.74
2019-01-16T17:29:48.071Z,100901.53
2019-01-16T17:32:52.382Z,100896.84
2019-01-16T17:36:05.012Z,100893.66
2019-01-16T17:39:24.176Z,100887.23
2019-01-16T17:42:25.558Z,100884.87
2019-01-16T17:45:38.016Z,100897.53
2019-01-16T17:48:46.400Z,100888.13
2019-01-16T17:51:57.307Z,100891.70
2019-01-16T17:55:12.362Z,100894.73
2019-01-16T17:58:24.611Z,100900.60
2019-01-16T18:01:32.039Z,100908.44
2019-01-16T18:04:34.865Z,100907.66
2019-01-16T18:07:46.557Z,100868.61
2019-01-16T18:10:52.397Z,100903.70
2019-01-16T18:13:58.369Z,100905.55
2019-01-16T18:17:10.967Z,100900.66
2019-01-16T18:20:35.658Z,100901.78
2019-01-16T18:23:43.964Z,100898.08
2019-01-16T18:26:55.635Z,100897.58
2019-01-16T18:30:03.961Z,100883.34
2019-01-16T18:33:12.011Z,100896.59
2019-01-16T18:36:18.866Z,100906.86
2019-01-16T18:39:24.236Z,100897.48
2019-01-16T18:42:52.033Z,100900.39
2019-01-16T18:46:01.214Z,100897.68
2019-01-16T18:48:59.942Z,100906.93
2019-01-16T18:52:14.765Z,100901.06
2019-01-16T18:55:27.663Z,100911.70
2019-01-16T18:58:43.284Z,100903.92
2019-01-16T19:01:57.955Z,100903.78
2019-01-16T19:05:00.652Z,100902.39
2019-01-16T19:08:13.037Z,100909.83
2019-01-16T19:11:38.750Z,100913.23
2019-01-16T19:14:52.298Z,100915.91
2019-01-16T19:18:02.499Z,100932.51
2019-01-16T19:21:06.532Z,100940.66
2019-01-16T19:24:15.682Z,100943.16
2019-01-16T19:27:15.127Z,100947.31
2019-01-16T19:30:36.059Z,100957.33
2019-01-16T19:33:50.884Z,100960.53
2019-01-16T19:37:00.302Z,100965.23
2019-01-16T19:40:04.752Z,100963.91
2019-01-16T19:43:17.027Z,100960.53
2019-01-16T19:46:35.043Z,100959.98
2019-01-16T19:49:43.420Z,100968.05
2019-01-16T19:52:51.007Z,100967.02
2019-01-16T19:56:03.737Z,100971.28
2019-01-16T19:59:25.120Z,100979.66
2019-01-16T20:02:40.205Z,100984.95
2019-01-16T20:05:55.522Z,100986.66
2019-01-16T20:09:04.834Z,100988.37
2019-01-16T20:12:13.359Z,100988.97
2019-01-16T20:15:21.346Z,100996.66
2019-01-16T20:18:29.282Z,101000.95
2019-01-16T20:21:38.782Z,101006.77
2019-01-16T20:24:48.781Z,101000.74
2019-01-16T20:28:07.181Z,101006.69
2019-01-16T20:31:12.164Z,101008.88
2019-01-16T20:34:21.603Z,101013.88
2019-01-16T20:37:30.011Z,101006.70
2019-01-16T20:40:43.054Z,101002.79
2019-01-16T20:44:01.586Z,101016.92
2019-01-16T20:47:11.524Z,101018.25
2019-01-16T20:50:27.744Z,101026.72
2019-01-16T20:53:27.870Z,101027.26
2019-01-16T20:56:35.845Z,101033.67
2019-01-16T20:59:45.392Z,101034.63
2019-01-16T21:02:47.612Z,101042.75
2019-01-16T21:06:02.232Z,101038.77
2019-01-16T21:09:11.794Z,101040.94
2019-01-16T21:12:19.985Z,101037.28
2019-01-16T21:15:28.981Z,101032.75
2019-01-16T21:18:37.167Z,100998.80
2019-01-16T21:22:06.364Z,101022.66
2019-01-16T21:25:31.323Z,101033.05
2019-01-16T21:28:39.556Z,101029.60
2019-01-16T21:31:46.599Z,101034.22
2019-01-16T21:34:45.547Z,101037.91
2019-01-16T21:37:55.121Z,101034.30
2019-01-16T21:41:04.256Z,101024.61
2019-01-16T21:44:11.948Z,101020.99
2019-01-16T21:47:37.455Z,101009.73
2019-01-16T21:50:53.365Z,100999.97
2019-01-16T21:54:05.619Z,101010.69
2019-01-16T21:57:18.139Z,101011.06
2019-01-16T22:00:39.475Z,101011.14
2019-01-16T22:03:44.409Z,101018.20
2019-01-16T22:07:06.149Z,101018.83
2019-01-16T22:10:14.149Z,101015.66
2019-01-16T22:13:29.619Z,101020.37
2019-01-16T22:16:42.409Z,101001.83
2019-01-16T22:19:55.137Z,101016.92
2019-01-16T22:23:10.419Z,101010.44
2019-01-16T22:26:17.860Z,101006.70
2019-01-16T22:29:33.472Z,101013.18
2019-01-16T22:32:54.942Z,101020.00
2019-01-16T22:36:04.397Z,101025.23
2019-01-16T22:39:04.456Z,101022.11
2019-01-16T22:42:15.773Z,101025.84
2019-01-16T22:45:27.052Z,101016.63
2019-01-16T22:48:32.650Z,101008.41
2019-01-16T22:51:48.234Z,101006.53
2019-01-16T22:54:56.663Z,101011.85
2019-01-16T22:58:05.658Z,101004.42
2019-01-16T23:01:13.668Z,101006.45
2019-01-16T23:04:35.218Z,101002.63
2019-01-16T23:07:33.894Z,101005.45
2019-01-16T23:10:52.544Z,100996.93
2019-01-16T23:13:54.324Z,100994.48
2019-01-16T23:17:03.127Z,100998.80
2019-01-16T23:20:27.667Z,101001.30
2019-01-16T23:23:49.742Z,101003.09
2019-01-16T23:27:05.821Z,101005.29
2019-01-16T23:30:21.168Z,101012.56
2019-01-16T23:33:27.332Z,101009.60
2019-01-16T23:36:54.804Z,101007.07
2019-01-16T23:40:03.541Z,101006.69
2019-01-16T23:43:16.280Z,101016.63
2019-01-16T23:46:37.816Z,101011.55
2019-01-16T23:50:05.307Z,101010.44
2019-01-16T23:53:19.576Z,101003.33
2019-01-16T23:56:27.116Z,101015.47
2019-01-16T23:59:38.249Z,101019.91
